sensor_id;sensor_type;location;lat;lon;timestamp;P1;durP1;ratioP1;P2;durP2;ratioP2
42192;SDS011;52467;40.114;18.306;2022-12-07T00:01:31;26.67;;;11.88;;
42192;SDS011;52467;40.114;18.306;2022-12-07T00:04:00;28.58;;;11.75;;
42192;SDS011;52467;40.114;18.306;2022-12-07T00:06:33;28.15;;;12.23;;
42192;SDS011;52467;40.114;18.306;2022-12-07T00:09:01;32.50;;;12.80;;
42192;SDS011;52467;40.114;18.306;2022-12-07T00:11:30;25.95;;;11.43;;
42192;SDS011;52467;40.114;18.306;2022-12-07T00:13:58;30.15;;;12.10;;
42192;SDS011;52467;40.114;18.306;2022-12-07T00:16:28;25.05;;;12.15;;
42192;SDS011;52467;40.114;18.306;2022-12-07T00:18:57;27.73;;;13.07;;
42192;SDS011;52467;40.114;18.306;2022-12-07T00:21:26;26.42;;;12.15;;
42192;SDS011;52467;40.114;18.306;2022-12-07T00:23:55;29.10;;;12.87;;
42192;SDS011;52467;40.114;18.306;2022-12-07T00:26:27;27.30;;;12.48;;
42192;SDS011;52467;40.114;18.306;2022-12-07T00:29:05;25.48;;;12.05;;
42192;SDS011;52467;40.114;18.306;2022-12-07T00:31:34;26.43;;;12.63;;
42192;SDS011;52467;40.114;18.306;2022-12-07T00:34:05;25.30;;;12.75;;
42192;SDS011;52467;40.114;18.306;2022-12-07T00:36:34;26.02;;;12.57;;
42192;SDS011;52467;40.114;18.306;2022-12-07T00:39:02;27.93;;;12.83;;
42192;SDS011;52467;40.114;18.306;2022-12-07T00:41:30;33.67;;;13.45;;
42192;SDS011;52467;40.114;18.306;2022-12-07T00:43:57;25.35;;;12.68;;
42192;SDS011;52467;40.114;18.306;2022-12-07T00:46:25;33.33;;;12.93;;
42192;SDS011;52467;40.114;18.306;2022-12-07T00:48:53;28.00;;;12.93;;
42192;SDS011;52467;40.114;18.306;2022-12-07T00:51:21;29.60;;;12.43;;
42192;SDS011;52467;40.114;18.306;2022-12-07T00:53:50;32.97;;;12.73;;
42192;SDS011;52467;40.114;18.306;2022-12-07T00:56:20;25.23;;;12.38;;
42192;SDS011;52467;40.114;18.306;2022-12-07T00:58:50;29.42;;;13.23;;
42192;SDS011;52467;40.114;18.306;2022-12-07T01:01:20;31.83;;;13.17;;
42192;SDS011;52467;40.114;18.306;2022-12-07T01:03:48;31.73;;;12.60;;
42192;SDS011;52467;40.114;18.306;2022-12-07T01:06:19;29.00;;;12.20;;
42192;SDS011;52467;40.114;18.306;2022-12-07T01:08:47;31.93;;;13.70;;
42192;SDS011;52467;40.114;18.306;2022-12-07T01:11:15;29.95;;;12.77;;
42192;SDS011;52467;40.114;18.306;2022-12-07T01:13:44;29.98;;;11.95;;
42192;SDS011;52467;40.114;18.306;2022-12-07T01:16:13;29.20;;;12.88;;
42192;SDS011;52467;40.114;18.306;2022-12-07T01:18:42;32.60;;;12.90;;
42192;SDS011;52467;40.114;18.306;2022-12-07T01:21:16;27.13;;;12.50;;
42192;SDS011;52467;40.114;18.306;2022-12-07T01:23:48;27.92;;;12.25;;
42192;SDS011;52467;40.114;18.306;2022-12-07T01:26:17;27.30;;;12.93;;
42192;SDS011;52467;40.114;18.306;2022-12-07T01:28:49;25.50;;;13.45;;
42192;SDS011;52467;40.114;18.306;2022-12-07T01:31:18;26.42;;;11.75;;
42192;SDS011;52467;40.114;18.306;2022-12-07T01:33:50;22.20;;;11.75;;
42192;SDS011;52467;40.114;18.306;2022-12-07T01:36:23;24.05;;;11.80;;
42192;SDS011;52467;40.114;18.306;2022-12-07T01:38:56;26.15;;;11.90;;
42192;SDS011;52467;40.114;18.306;2022-12-07T01:41:27;24.50;;;11.02;;
42192;SDS011;52467;40.114;18.306;2022-12-07T01:44:15;25.95;;;11.15;;
42192;SDS011;52467;40.114;18.306;2022-12-07T01:47:07;25.27;;;10.95;;
42192;SDS011;52467;40.114;18.306;2022-12-07T01:49:35;22.20;;;10.90;;
42192;SDS011;52467;40.114;18.306;2022-12-07T01:54:43;24.85;;;10.93;;
42192;SDS011;52467;40.114;18.306;2022-12-07T01:57:11;18.92;;;9.93;;
42192;SDS011;52467;40.114;18.306;2022-12-07T01:59:41;23.95;;;10.10;;
42192;SDS011;52467;40.114;18.306;2022-12-07T02:02:11;20.98;;;10.43;;
42192;SDS011;52467;40.114;18.306;2022-12-07T02:04:50;22.13;;;9.50;;
42192;SDS011;52467;40.114;18.306;2022-12-07T02:07:19;21.52;;;9.68;;
42192;SDS011;52467;40.114;18.306;2022-12-07T02:09:47;20.25;;;9.98;;
42192;SDS011;52467;40.114;18.306;2022-12-07T02:12:14;25.60;;;9.15;;
42192;SDS011;52467;40.114;18.306;2022-12-07T02:14:42;24.42;;;9.70;;
42192;SDS011;52467;40.114;18.306;2022-12-07T02:17:25;19.80;;;8.65;;
42192;SDS011;52467;40.114;18.306;2022-12-07T02:31:06;20.30;;;8.25;;
42192;SDS011;52467;40.114;18.306;2022-12-07T02:33:41;21.05;;;9.30;;
42192;SDS011;52467;40.114;18.306;2022-12-07T02:36:30;22.33;;;9.32;;
42192;SDS011;52467;40.114;18.306;2022-12-07T02:42:27;20.00;;;8.65;;
42192;SDS011;52467;40.114;18.306;2022-12-07T02:44:37;14.00;;;8.17;;
42192;SDS011;52467;40.114;18.306;2022-12-07T02:47:05;19.38;;;8.45;;
42192;SDS011;52467;40.114;18.306;2022-12-07T02:49:34;18.73;;;8.60;;
42192;SDS011;52467;40.114;18.306;2022-12-07T02:52:03;19.17;;;8.30;;
42192;SDS011;52467;40.114;18.306;2022-12-07T02:54:30;17.90;;;8.20;;
42192;SDS011;52467;40.114;18.306;2022-12-07T02:57:11;18.98;;;8.35;;
42192;SDS011;52467;40.114;18.306;2022-12-07T03:11:10;21.95;;;7.85;;
42192;SDS011;52467;40.114;18.306;2022-12-07T03:16:22;19.63;;;6.88;;
42192;SDS011;52467;40.114;18.306;2022-12-07T03:18:57;14.60;;;6.53;;
42192;SDS011;52467;40.114;18.306;2022-12-07T03:21:37;23.20;;;7.78;;
42192;SDS011;52467;40.114;18.306;2022-12-07T03:24:10;18.27;;;7.30;;
42192;SDS011;52467;40.114;18.306;2022-12-07T03:26:44;14.75;;;7.13;;
42192;SDS011;52467;40.114;18.306;2022-12-07T03:29:27;14.98;;;6.78;;
42192;SDS011;52467;40.114;18.306;2022-12-07T03:31:58;17.83;;;7.55;;
42192;SDS011;52467;40.114;18.306;2022-12-07T03:34:53;19.75;;;7.32;;
42192;SDS011;52467;40.114;18.306;2022-12-07T03:37:39;18.90;;;7.50;;
42192;SDS011;52467;40.114;18.306;2022-12-07T03:40:28;20.95;;;7.68;;
42192;SDS011;52467;40.114;18.306;2022-12-07T03:43:00;16.63;;;7.45;;
42192;SDS011;52467;40.114;18.306;2022-12-07T03:46:13;18.92;;;7.07;;
42192;SDS011;52467;40.114;18.306;2022-12-07T03:48:35;14.63;;;7.07;;
42192;SDS011;52467;40.114;18.306;2022-12-07T03:53:39;12.52;;;6.45;;
42192;SDS011;52467;40.114;18.306;2022-12-07T03:56:13;17.60;;;7.00;;
42192;SDS011;52467;40.114;18.306;2022-12-07T03:58:40;23.38;;;7.72;;
42192;SDS011;52467;40.114;18.306;2022-12-07T04:01:08;17.80;;;6.68;;
42192;SDS011;52467;40.114;18.306;2022-12-07T04:03:35;16.20;;;7.30;;
42192;SDS011;52467;40.114;18.306;2022-12-07T04:06:03;22.67;;;6.80;;
42192;SDS011;52467;40.114;18.306;2022-12-07T04:08:30;15.07;;;6.88;;
42192;SDS011;52467;40.114;18.306;2022-12-07T04:10:57;19.17;;;6.93;;
42192;SDS011;52467;40.114;18.306;2022-12-07T04:13:25;15.20;;;7.63;;
42192;SDS011;52467;40.114;18.306;2022-12-07T04:15:52;17.45;;;7.43;;
42192;SDS011;52467;40.114;18.306;2022-12-07T04:18:19;20.00;;;7.78;;
42192;SDS011;52467;40.114;18.306;2022-12-07T04:20:47;16.97;;;8.03;;
42192;SDS011;52467;40.114;18.306;2022-12-07T04:23:14;17.15;;;7.97;;
42192;SDS011;52467;40.114;18.306;2022-12-07T04:25:42;17.55;;;8.35;;
42192;SDS011;52467;40.114;18.306;2022-12-07T04:28:10;21.60;;;9.23;;
42192;SDS011;52467;40.114;18.306;2022-12-07T04:30:37;21.42;;;9.77;;
42192;SDS011;52467;40.114;18.306;2022-12-07T04:33:04;23.25;;;9.38;;
42192;SDS011;52467;40.114;18.306;2022-12-07T04:35:32;23.43;;;9.70;;
42192;SDS011;52467;40.114;18.306;2022-12-07T04:38:06;19.85;;;9.48;;
42192;SDS011;52467;40.114;18.306;2022-12-07T04:40:46;20.40;;;9.32;;
42192;SDS011;52467;40.114;18.306;2022-12-07T04:43:14;18.73;;;9.40;;
42192;SDS011;52467;40.114;18.306;2022-12-07T04:45:45;17.98;;;8.80;;
42192;SDS011;52467;40.114;18.306;2022-12-07T04:48:14;20.67;;;8.80;;
42192;SDS011;52467;40.114;18.306;2022-12-07T04:50:42;17.93;;;8.77;;
42192;SDS011;52467;40.114;18.306;2022-12-07T04:53:11;20.42;;;9.10;;
42192;SDS011;52467;40.114;18.306;2022-12-07T04:55:38;20.65;;;8.55;;
42192;SDS011;52467;40.114;18.306;2022-12-07T04:58:06;19.33;;;8.30;;
42192;SDS011;52467;40.114;18.306;2022-12-07T05:00:33;19.40;;;8.32;;
42192;SDS011;52467;40.114;18.306;2022-12-07T05:03:00;19.30;;;8.77;;
42192;SDS011;52467;40.114;18.306;2022-12-07T05:05:27;19.38;;;8.60;;
42192;SDS011;52467;40.114;18.306;2022-12-07T05:07:55;18.38;;;8.30;;
42192;SDS011;52467;40.114;18.306;2022-12-07T05:10:22;16.70;;;7.93;;
42192;SDS011;52467;40.114;18.306;2022-12-07T05:12:49;17.08;;;8.45;;
42192;SDS011;52467;40.114;18.306;2022-12-07T05:15:17;17.70;;;7.25;;
42192;SDS011;52467;40.114;18.306;2022-12-07T05:17:44;19.63;;;8.63;;
42192;SDS011;52467;40.114;18.306;2022-12-07T05:20:11;16.45;;;7.35;;
42192;SDS011;52467;40.114;18.306;2022-12-07T05:22:39;18.98;;;7.70;;
42192;SDS011;52467;40.114;18.306;2022-12-07T05:25:06;19.43;;;7.27;;
42192;SDS011;52467;40.114;18.306;2022-12-07T05:27:34;18.90;;;7.10;;
42192;SDS011;52467;40.114;18.306;2022-12-07T05:30:01;18.58;;;7.72;;
42192;SDS011;52467;40.114;18.306;2022-12-07T05:32:29;14.27;;;7.18;;
42192;SDS011;52467;40.114;18.306;2022-12-07T05:34:56;17.23;;;7.90;;
42192;SDS011;52467;40.114;18.306;2022-12-07T05:37:24;17.23;;;7.60;;
42192;SDS011;52467;40.114;18.306;2022-12-07T05:39:57;13.68;;;7.10;;
42192;SDS011;52467;40.114;18.306;2022-12-07T05:42:25;15.52;;;7.32;;
42192;SDS011;52467;40.114;18.306;2022-12-07T05:44:52;17.92;;;6.88;;
42192;SDS011;52467;40.114;18.306;2022-12-07T05:47:19;16.83;;;6.75;;
42192;SDS011;52467;40.114;18.306;2022-12-07T05:49:46;14.83;;;5.97;;
42192;SDS011;52467;40.114;18.306;2022-12-07T05:52:14;14.68;;;6.03;;
42192;SDS011;52467;40.114;18.306;2022-12-07T05:54:41;18.58;;;5.63;;
42192;SDS011;52467;40.114;18.306;2022-12-07T05:57:26;13.75;;;5.90;;
42192;SDS011;52467;40.114;18.306;2022-12-07T05:59:53;15.20;;;5.53;;
42192;SDS011;52467;40.114;18.306;2022-12-07T06:02:21;12.10;;;5.30;;
42192;SDS011;52467;40.114;18.306;2022-12-07T06:04:48;14.98;;;5.68;;
42192;SDS011;52467;40.114;18.306;2022-12-07T06:07:16;25.17;;;6.50;;
42192;SDS011;52467;40.114;18.306;2022-12-07T06:09:43;15.70;;;6.18;;
42192;SDS011;52467;40.114;18.306;2022-12-07T06:12:11;17.92;;;5.97;;
42192;SDS011;52467;40.114;18.306;2022-12-07T06:14:57;13.33;;;5.77;;
42192;SDS011;52467;40.114;18.306;2022-12-07T06:17:24;14.40;;;5.65;;
42192;SDS011;52467;40.114;18.306;2022-12-07T06:19:52;14.33;;;5.53;;
42192;SDS011;52467;40.114;18.306;2022-12-07T06:22:19;16.13;;;6.38;;
42192;SDS011;52467;40.114;18.306;2022-12-07T06:24:46;13.45;;;5.95;;
42192;SDS011;52467;40.114;18.306;2022-12-07T06:27:14;15.38;;;5.88;;
42192;SDS011;52467;40.114;18.306;2022-12-07T06:29:41;13.63;;;5.80;;
42192;SDS011;52467;40.114;18.306;2022-12-07T06:32:08;16.85;;;6.45;;
42192;SDS011;52467;40.114;18.306;2022-12-07T06:34:36;15.30;;;6.35;;
42192;SDS011;52467;40.114;18.306;2022-12-07T06:37:03;15.23;;;6.43;;
42192;SDS011;52467;40.114;18.306;2022-12-07T06:39:31;19.67;;;5.85;;
42192;SDS011;52467;40.114;18.306;2022-12-07T06:41:58;11.30;;;5.57;;
42192;SDS011;52467;40.114;18.306;2022-12-07T06:44:25;16.08;;;5.55;;
42192;SDS011;52467;40.114;18.306;2022-12-07T06:46:53;11.93;;;4.95;;
42192;SDS011;52467;40.114;18.306;2022-12-07T06:49:27;17.65;;;5.30;;
42192;SDS011;52467;40.114;18.306;2022-12-07T06:51:55;15.32;;;5.35;;
42192;SDS011;52467;40.114;18.306;2022-12-07T06:54:22;15.77;;;5.28;;
42192;SDS011;52467;40.114;18.306;2022-12-07T06:56:49;14.90;;;5.33;;
42192;SDS011;52467;40.114;18.306;2022-12-07T06:59:17;14.18;;;4.80;;
42192;SDS011;52467;40.114;18.306;2022-12-07T07:01:44;15.70;;;5.57;;
42192;SDS011;52467;40.114;18.306;2022-12-07T07:04:11;13.38;;;5.18;;
42192;SDS011;52467;40.114;18.306;2022-12-07T07:06:39;12.18;;;5.20;;
42192;SDS011;52467;40.114;18.306;2022-12-07T07:09:11;17.90;;;5.50;;
42192;SDS011;52467;40.114;18.306;2022-12-07T07:11:38;15.57;;;5.55;;
42192;SDS011;52467;40.114;18.306;2022-12-07T07:14:06;11.27;;;4.87;;
42192;SDS011;52467;40.114;18.306;2022-12-07T07:16:34;13.85;;;4.80;;
42192;SDS011;52467;40.114;18.306;2022-12-07T07:19:01;12.57;;;4.93;;
42192;SDS011;52467;40.114;18.306;2022-12-07T07:21:28;12.18;;;5.47;;
42192;SDS011;52467;40.114;18.306;2022-12-07T07:23:56;16.27;;;5.63;;
42192;SDS011;52467;40.114;18.306;2022-12-07T07:26:23;18.77;;;6.05;;
42192;SDS011;52467;40.114;18.306;2022-12-07T07:28:51;14.82;;;6.18;;
42192;SDS011;52467;40.114;18.306;2022-12-07T07:31:18;16.45;;;6.05;;
42192;SDS011;52467;40.114;18.306;2022-12-07T07:33:47;14.07;;;5.65;;
42192;SDS011;52467;40.114;18.306;2022-12-07T07:36:14;16.23;;;5.43;;
42192;SDS011;52467;40.114;18.306;2022-12-07T07:38:42;11.60;;;5.03;;
42192;SDS011;52467;40.114;18.306;2022-12-07T07:41:09;12.93;;;5.07;;
42192;SDS011;52467;40.114;18.306;2022-12-07T07:43:57;11.70;;;5.00;;
42192;SDS011;52467;40.114;18.306;2022-12-07T07:46:24;12.82;;;4.63;;
42192;SDS011;52467;40.114;18.306;2022-12-07T07:48:51;12.43;;;3.93;;
42192;SDS011;52467;40.114;18.306;2022-12-07T07:51:19;13.23;;;3.78;;
42192;SDS011;52467;40.114;18.306;2022-12-07T07:53:46;18.58;;;4.47;;
42192;SDS011;52467;40.114;18.306;2022-12-07T07:56:13;14.00;;;4.05;;
42192;SDS011;52467;40.114;18.306;2022-12-07T07:58:40;12.77;;;3.63;;
42192;SDS011;52467;40.114;18.306;2022-12-07T08:01:08;10.95;;;4.00;;
42192;SDS011;52467;40.114;18.306;2022-12-07T08:03:35;14.38;;;4.40;;
42192;SDS011;52467;40.114;18.306;2022-12-07T08:06:03;14.32;;;3.72;;
42192;SDS011;52467;40.114;18.306;2022-12-07T08:08:31;13.48;;;3.25;;
42192;SDS011;52467;40.114;18.306;2022-12-07T08:10:58;13.13;;;3.88;;
42192;SDS011;52467;40.114;18.306;2022-12-07T08:13:28;22.48;;;4.20;;
42192;SDS011;52467;40.114;18.306;2022-12-07T08:15:56;30.90;;;4.63;;
42192;SDS011;52467;40.114;18.306;2022-12-07T08:18:24;22.58;;;5.50;;
42192;SDS011;52467;40.114;18.306;2022-12-07T08:20:51;13.68;;;3.75;;
42192;SDS011;52467;40.114;18.306;2022-12-07T08:23:18;24.10;;;4.23;;
42192;SDS011;52467;40.114;18.306;2022-12-07T08:25:46;23.05;;;4.05;;
42192;SDS011;52467;40.114;18.306;2022-12-07T08:28:14;18.88;;;3.33;;
42192;SDS011;52467;40.114;18.306;2022-12-07T08:30:42;24.00;;;3.97;;
42192;SDS011;52467;40.114;18.306;2022-12-07T08:33:10;13.25;;;3.28;;
42192;SDS011;52467;40.114;18.306;2022-12-07T08:35:37;16.60;;;2.90;;
42192;SDS011;52467;40.114;18.306;2022-12-07T08:38:04;14.77;;;3.22;;
42192;SDS011;52467;40.114;18.306;2022-12-07T08:40:32;17.43;;;3.00;;
42192;SDS011;52467;40.114;18.306;2022-12-07T08:42:59;12.35;;;2.90;;
42192;SDS011;52467;40.114;18.306;2022-12-07T08:45:27;13.45;;;2.58;;
42192;SDS011;52467;40.114;18.306;2022-12-07T08:47:57;16.83;;;3.17;;
42192;SDS011;52467;40.114;18.306;2022-12-07T08:50:30;10.00;;;2.60;;
42192;SDS011;52467;40.114;18.306;2022-12-07T08:52:58;10.38;;;2.63;;
42192;SDS011;52467;40.114;18.306;2022-12-07T08:55:26;14.93;;;2.63;;
42192;SDS011;52467;40.114;18.306;2022-12-07T08:57:54;17.65;;;2.60;;
42192;SDS011;52467;40.114;18.306;2022-12-07T09:00:21;12.65;;;2.20;;
42192;SDS011;52467;40.114;18.306;2022-12-07T09:02:49;14.60;;;2.40;;
42192;SDS011;52467;40.114;18.306;2022-12-07T09:05:16;9.45;;;1.88;;
42192;SDS011;52467;40.114;18.306;2022-12-07T09:07:44;12.30;;;2.20;;
42192;SDS011;52467;40.114;18.306;2022-12-07T09:10:14;12.82;;;2.40;;
42192;SDS011;52467;40.114;18.306;2022-12-07T09:12:41;10.48;;;2.40;;
42192;SDS011;52467;40.114;18.306;2022-12-07T09:15:09;9.60;;;1.92;;
42192;SDS011;52467;40.114;18.306;2022-12-07T09:17:36;13.82;;;2.80;;
42192;SDS011;52467;40.114;18.306;2022-12-07T09:20:04;11.07;;;2.15;;
42192;SDS011;52467;40.114;18.306;2022-12-07T09:22:32;7.13;;;1.90;;
42192;SDS011;52467;40.114;18.306;2022-12-07T09:25:00;10.23;;;2.17;;
42192;SDS011;52467;40.114;18.306;2022-12-07T09:27:28;12.77;;;1.83;;
42192;SDS011;52467;40.114;18.306;2022-12-07T09:29:55;16.00;;;2.23;;
42192;SDS011;52467;40.114;18.306;2022-12-07T09:32:23;10.88;;;2.10;;
42192;SDS011;52467;40.114;18.306;2022-12-07T09:34:51;9.57;;;2.50;;
42192;SDS011;52467;40.114;18.306;2022-12-07T09:37:18;12.13;;;1.63;;
42192;SDS011;52467;40.114;18.306;2022-12-07T09:39:45;9.60;;;2.55;;
42192;SDS011;52467;40.114;18.306;2022-12-07T09:42:35;8.10;;;2.00;;
42192;SDS011;52467;40.114;18.306;2022-12-07T09:45:07;12.35;;;2.60;;
42192;SDS011;52467;40.114;18.306;2022-12-07T09:47:40;9.40;;;1.77;;
42192;SDS011;52467;40.114;18.306;2022-12-07T09:50:12;15.85;;;2.40;;
42192;SDS011;52467;40.114;18.306;2022-12-07T09:52:42;13.65;;;2.35;;
42192;SDS011;52467;40.114;18.306;2022-12-07T09:55:12;11.77;;;2.00;;
42192;SDS011;52467;40.114;18.306;2022-12-07T09:57:41;11.45;;;2.40;;
42192;SDS011;52467;40.114;18.306;2022-12-07T10:00:15;8.23;;;2.25;;
42192;SDS011;52467;40.114;18.306;2022-12-07T10:02:46;10.85;;;2.03;;
42192;SDS011;52467;40.114;18.306;2022-12-07T10:05:18;8.82;;;1.52;;
42192;SDS011;52467;40.114;18.306;2022-12-07T10:07:57;11.70;;;2.15;;
42192;SDS011;52467;40.114;18.306;2022-12-07T10:10:25;14.68;;;2.30;;
42192;SDS011;52467;40.114;18.306;2022-12-07T10:13:07;12.32;;;2.95;;
42192;SDS011;52467;40.114;18.306;2022-12-07T10:15:55;11.02;;;2.30;;
42192;SDS011;52467;40.114;18.306;2022-12-07T10:18:28;14.30;;;2.35;;
42192;SDS011;52467;40.114;18.306;2022-12-07T10:23:34;9.88;;;2.33;;
42192;SDS011;52467;40.114;18.306;2022-12-07T10:26:20;14.50;;;2.30;;
42192;SDS011;52467;40.114;18.306;2022-12-07T10:31:57;11.13;;;1.87;;
42192;SDS011;52467;40.114;18.306;2022-12-07T10:34:31;11.55;;;2.03;;
42192;SDS011;52467;40.114;18.306;2022-12-07T10:37:13;12.68;;;2.25;;
42192;SDS011;52467;40.114;18.306;2022-12-07T10:39:51;9.45;;;1.90;;
42192;SDS011;52467;40.114;18.306;2022-12-07T10:44:48;6.65;;;2.00;;
42192;SDS011;52467;40.114;18.306;2022-12-07T10:47:19;8.57;;;2.00;;
42192;SDS011;52467;40.114;18.306;2022-12-07T10:55:14;8.40;;;1.50;;
42192;SDS011;52467;40.114;18.306;2022-12-07T11:00:44;5.28;;;1.42;;
42192;SDS011;52467;40.114;18.306;2022-12-07T11:19:29;12.15;;;2.00;;
42192;SDS011;52467;40.114;18.306;2022-12-07T11:25:29;11.77;;;2.20;;
42192;SDS011;52467;40.114;18.306;2022-12-07T11:28:08;9.80;;;1.90;;
42192;SDS011;52467;40.114;18.306;2022-12-07T11:33:40;9.43;;;1.98;;
42192;SDS011;52467;40.114;18.306;2022-12-07T11:39:26;14.15;;;1.90;;
42192;SDS011;52467;40.114;18.306;2022-12-07T11:42:00;15.82;;;2.40;;
42192;SDS011;52467;40.114;18.306;2022-12-07T11:48:01;24.57;;;3.77;;
42192;SDS011;52467;40.114;18.306;2022-12-07T11:56:34;13.50;;;2.97;;
42192;SDS011;52467;40.114;18.306;2022-12-07T12:02:11;23.73;;;3.15;;
42192;SDS011;52467;40.114;18.306;2022-12-07T12:05:05;15.57;;;2.70;;
42192;SDS011;52467;40.114;18.306;2022-12-07T12:07:36;19.35;;;2.63;;
42192;SDS011;52467;40.114;18.306;2022-12-07T12:16:44;15.50;;;2.53;;
42192;SDS011;52467;40.114;18.306;2022-12-07T12:21:46;12.50;;;2.17;;
42192;SDS011;52467;40.114;18.306;2022-12-07T12:24:17;15.32;;;2.13;;
42192;SDS011;52467;40.114;18.306;2022-12-07T12:27:29;17.42;;;2.35;;
42192;SDS011;52467;40.114;18.306;2022-12-07T12:29:41;20.40;;;2.60;;
42192;SDS011;52467;40.114;18.306;2022-12-07T12:40:37;14.65;;;2.60;;
42192;SDS011;52467;40.114;18.306;2022-12-07T12:42:59;13.65;;;2.30;;
42192;SDS011;52467;40.114;18.306;2022-12-07T12:45:30;10.82;;;2.58;;
42192;SDS011;52467;40.114;18.306;2022-12-07T12:48:35;16.98;;;2.15;;
42192;SDS011;52467;40.114;18.306;2022-12-07T12:54:11;18.85;;;3.20;;
42192;SDS011;52467;40.114;18.306;2022-12-07T12:56:48;11.27;;;2.05;;
42192;SDS011;52467;40.114;18.306;2022-12-07T13:01:49;13.68;;;2.35;;
42192;SDS011;52467;40.114;18.306;2022-12-07T13:15:50;13.17;;;1.70;;
42192;SDS011;52467;40.114;18.306;2022-12-07T13:31:18;12.18;;;1.90;;
42192;SDS011;52467;40.114;18.306;2022-12-07T13:34:00;14.43;;;2.22;;
42192;SDS011;52467;40.114;18.306;2022-12-07T13:36:37;14.68;;;1.80;;
42192;SDS011;52467;40.114;18.306;2022-12-07T13:39:17;13.40;;;1.95;;
42192;SDS011;52467;40.114;18.306;2022-12-07T13:41:57;12.70;;;2.47;;
42192;SDS011;52467;40.114;18.306;2022-12-07T13:44:27;10.60;;;2.40;;
42192;SDS011;52467;40.114;18.306;2022-12-07T13:49:37;17.35;;;1.75;;
42192;SDS011;52467;40.114;18.306;2022-12-07T13:52:27;14.27;;;2.28;;
42192;SDS011;52467;40.114;18.306;2022-12-07T13:55:01;18.00;;;2.00;;
42192;SDS011;52467;40.114;18.306;2022-12-07T13:57:32;13.10;;;2.22;;
42192;SDS011;52467;40.114;18.306;2022-12-07T14:00:02;8.82;;;1.73;;
42192;SDS011;52467;40.114;18.306;2022-12-07T14:02:32;12.77;;;2.08;;
42192;SDS011;52467;40.114;18.306;2022-12-07T14:05:09;8.30;;;1.77;;
42192;SDS011;52467;40.114;18.306;2022-12-07T14:12:59;5.63;;;1.45;;
42192;SDS011;52467;40.114;18.306;2022-12-07T14:15:31;9.00;;;2.20;;
42192;SDS011;52467;40.114;18.306;2022-12-07T14:18:00;5.77;;;1.60;;
42192;SDS011;52467;40.114;18.306;2022-12-07T14:23:03;8.18;;;1.75;;
42192;SDS011;52467;40.114;18.306;2022-12-07T14:25:48;9.27;;;1.80;;
42192;SDS011;52467;40.114;18.306;2022-12-07T14:28:31;9.88;;;1.85;;
42192;SDS011;52467;40.114;18.306;2022-12-07T14:31:00;9.30;;;1.90;;
42192;SDS011;52467;40.114;18.306;2022-12-07T14:33:27;7.85;;;1.60;;
42192;SDS011;52467;40.114;18.306;2022-12-07T14:35:55;6.10;;;1.60;;
42192;SDS011;52467;40.114;18.306;2022-12-07T14:38:25;11.45;;;2.05;;
42192;SDS011;52467;40.114;18.306;2022-12-07T14:40:53;11.83;;;2.90;;
42192;SDS011;52467;40.114;18.306;2022-12-07T14:43:41;9.38;;;2.13;;
42192;SDS011;52467;40.114;18.306;2022-12-07T14:46:14;8.68;;;3.10;;
42192;SDS011;52467;40.114;18.306;2022-12-07T14:48:42;9.68;;;3.05;;
42192;SDS011;52467;40.114;18.306;2022-12-07T14:51:29;16.67;;;5.50;;
42192;SDS011;52467;40.114;18.306;2022-12-07T14:54:18;16.73;;;6.27;;
42192;SDS011;52467;40.114;18.306;2022-12-07T14:56:46;15.45;;;6.78;;
42192;SDS011;52467;40.114;18.306;2022-12-07T14:59:17;12.23;;;4.15;;
42192;SDS011;52467;40.114;18.306;2022-12-07T15:01:45;13.07;;;4.63;;
42192;SDS011;52467;40.114;18.306;2022-12-07T15:04:12;6.68;;;3.17;;
42192;SDS011;52467;40.114;18.306;2022-12-07T15:06:40;8.77;;;4.00;;
42192;SDS011;52467;40.114;18.306;2022-12-07T15:09:10;9.98;;;2.83;;
42192;SDS011;52467;40.114;18.306;2022-12-07T15:11:38;12.23;;;3.22;;
42192;SDS011;52467;40.114;18.306;2022-12-07T15:14:08;6.87;;;2.73;;
42192;SDS011;52467;40.114;18.306;2022-12-07T15:16:40;4.43;;;2.42;;
42192;SDS011;52467;40.114;18.306;2022-12-07T15:19:28;10.55;;;2.45;;
42192;SDS011;52467;40.114;18.306;2022-12-07T15:21:56;7.85;;;2.63;;
42192;SDS011;52467;40.114;18.306;2022-12-07T15:24:24;6.90;;;2.65;;
42192;SDS011;52467;40.114;18.306;2022-12-07T15:26:51;11.48;;;3.25;;
42192;SDS011;52467;40.114;18.306;2022-12-07T15:29:19;12.73;;;3.17;;
42192;SDS011;52467;40.114;18.306;2022-12-07T15:31:49;11.68;;;3.15;;
42192;SDS011;52467;40.114;18.306;2022-12-07T15:34:22;7.60;;;3.60;;
42192;SDS011;52467;40.114;18.306;2022-12-07T15:36:51;14.13;;;3.88;;
42192;SDS011;52467;40.114;18.306;2022-12-07T15:39:18;10.55;;;3.88;;
42192;SDS011;52467;40.114;18.306;2022-12-07T15:41:46;10.23;;;3.50;;
42192;SDS011;52467;40.114;18.306;2022-12-07T15:44:13;10.97;;;3.63;;
42192;SDS011;52467;40.114;18.306;2022-12-07T15:47:00;10.02;;;3.47;;
42192;SDS011;52467;40.114;18.306;2022-12-07T15:49:27;10.53;;;2.93;;
42192;SDS011;52467;40.114;18.306;2022-12-07T15:51:55;14.90;;;4.30;;
42192;SDS011;52467;40.114;18.306;2022-12-07T15:54:26;15.65;;;5.03;;
42192;SDS011;52467;40.114;18.306;2022-12-07T15:56:54;22.15;;;5.90;;
42192;SDS011;52467;40.114;18.306;2022-12-07T15:59:22;22.17;;;6.00;;
42192;SDS011;52467;40.114;18.306;2022-12-07T16:01:50;14.82;;;5.90;;
42192;SDS011;52467;40.114;18.306;2022-12-07T16:04:18;12.55;;;5.63;;
42192;SDS011;52467;40.114;18.306;2022-12-07T16:06:45;12.70;;;5.32;;
42192;SDS011;52467;40.114;18.306;2022-12-07T16:09:13;19.02;;;5.63;;
42192;SDS011;52467;40.114;18.306;2022-12-07T16:11:41;14.32;;;5.78;;
42192;SDS011;52467;40.114;18.306;2022-12-07T16:14:08;15.32;;;6.43;;
42192;SDS011;52467;40.114;18.306;2022-12-07T16:16:36;16.30;;;6.40;;
42192;SDS011;52467;40.114;18.306;2022-12-07T16:19:03;18.98;;;5.72;;
42192;SDS011;52467;40.114;18.306;2022-12-07T16:21:31;24.00;;;6.35;;
42192;SDS011;52467;40.114;18.306;2022-12-07T16:23:58;16.07;;;5.87;;
42192;SDS011;52467;40.114;18.306;2022-12-07T16:26:26;18.73;;;6.13;;
42192;SDS011;52467;40.114;18.306;2022-12-07T16:28:53;14.98;;;6.40;;
42192;SDS011;52467;40.114;18.306;2022-12-07T16:31:23;13.10;;;5.55;;
42192;SDS011;52467;40.114;18.306;2022-12-07T16:33:55;17.03;;;4.77;;
42192;SDS011;52467;40.114;18.306;2022-12-07T16:36:23;12.77;;;5.15;;
42192;SDS011;52467;40.114;18.306;2022-12-07T16:39:13;11.75;;;5.05;;
42192;SDS011;52467;40.114;18.306;2022-12-07T16:41:40;11.05;;;4.25;;
42192;SDS011;52467;40.114;18.306;2022-12-07T16:44:09;13.20;;;4.72;;
42192;SDS011;52467;40.114;18.306;2022-12-07T16:46:37;11.27;;;4.05;;
42192;SDS011;52467;40.114;18.306;2022-12-07T16:49:05;9.45;;;4.30;;
42192;SDS011;52467;40.114;18.306;2022-12-07T16:51:41;18.48;;;7.50;;
42192;SDS011;52467;40.114;18.306;2022-12-07T16:54:11;16.90;;;8.27;;
42192;SDS011;52467;40.114;18.306;2022-12-07T16:56:39;15.80;;;6.80;;
42192;SDS011;52467;40.114;18.306;2022-12-07T16:59:07;18.50;;;7.07;;
42192;SDS011;52467;40.114;18.306;2022-12-07T17:01:35;19.50;;;9.73;;
42192;SDS011;52467;40.114;18.306;2022-12-07T17:04:02;21.63;;;7.90;;
42192;SDS011;52467;40.114;18.306;2022-12-07T17:06:30;22.42;;;10.00;;
42192;SDS011;52467;40.114;18.306;2022-12-07T17:08:58;19.87;;;9.47;;